createdAt,value
2022-09-03T00:02:27.377Z,100519.38
2022-09-03T00:05:16.050Z,100516.00
2022-09-03T00:08:10.099Z,100517.66
2022-09-03T00:10:53.362Z,100513.56
2022-09-03T00:13:36.319Z,100506.59
2022-09-03T00:16:10.451Z,100513.03
2022-09-03T00:18:46.284Z,100518.91
2022-09-03T00:21:39.353Z,100525.22
2022-09-03T00:24:13.986Z,100533.06
2022-09-03T00:26:52.090Z,100526.75
2022-09-03T00:29:25.522Z,100532.00
2022-09-03T00:32:02.368Z,100525.56
2022-09-03T00:34:35.487Z,100523.94
2022-09-03T00:37:03.786Z,100534.19
2022-09-03T00:39:32.037Z,100535.00
2022-09-03T00:42:28.439Z,100543.69
2022-09-03T00:45:18.642Z,100538.56
2022-09-03T00:48:07.987Z,100539.47
2022-09-03T00:51:02.043Z,100537.19
2022-09-03T00:53:52.179Z,100534.72
2022-09-03T00:56:41.084Z,100536.63
2022-09-03T00:59:31.441Z,100533.78
2022-09-03T01:02:14.837Z,100542.75
2022-09-03T01:04:54.931Z,100546.41
2022-09-03T01:07:23.079Z,100544.94
2022-09-03T01:10:04.533Z,100538.81
2022-09-03T01:12:36.101Z,100536.44
2022-09-03T01:15:21.472Z,100544.31
2022-09-03T01:18:06.592Z,100545.19
2022-09-03T01:20:58.060Z,100551.19
2022-09-03T01:23:54.707Z,100540.66
2022-09-03T01:26:35.088Z,100547.53
2022-09-03T01:29:34.828Z,100541.06
2022-09-03T01:32:30.679Z,100537.06
2022-09-03T01:35:19.328Z,100527.56
2022-09-03T01:38:05.948Z,100532.13
2022-09-03T01:40:47.968Z,100527.00
2022-09-03T01:43:36.706Z,100527.00
2022-09-03T01:46:13.899Z,100528.84
2022-09-03T01:48:56.223Z,100530.88
2022-09-03T01:51:29.535Z,100527.78
2022-09-03T01:53:58.100Z,100533.84
2022-09-03T01:56:38.088Z,100538.91
2022-09-03T01:59:23.950Z,100547.44
2022-09-03T02:01:59.892Z,100542.38
2022-09-03T02:04:28.829Z,100540.00
2022-09-03T02:07:00.581Z,100548.81
2022-09-03T02:09:32.644Z,100534.16
2022-09-03T02:12:11.485Z,100537.84
2022-09-03T02:14:40.197Z,100532.69
2022-09-03T02:17:09.162Z,100531.25
2022-09-03T02:19:38.250Z,100530.81
2022-09-03T02:22:09.332Z,100533.03
2022-09-03T02:24:38.363Z,100528.75
2022-09-03T02:27:06.685Z,100536.91
2022-09-03T02:29:35.021Z,100545.88
2022-09-03T02:32:03.528Z,100541.38
2022-09-03T02:34:31.704Z,100544.03
2022-09-03T02:37:00.056Z,100538.81
2022-09-03T02:39:29.034Z,100543.78
2022-09-03T02:41:58.911Z,100537.63
2022-09-03T02:44:33.833Z,100542.66
2022-09-03T02:47:06.276Z,100534.78
2022-09-03T02:49:37.785Z,100540.81
2022-09-03T02:52:12.322Z,100542.72
2022-09-03T02:54:40.920Z,100543.72
2022-09-03T02:57:11.615Z,100548.88
2022-09-03T02:59:41.597Z,100546.56
2022-09-03T03:02:10.044Z,100562.16
2022-09-03T03:04:41.674Z,100562.56
2022-09-03T03:07:09.931Z,100569.38
2022-09-03T03:09:38.046Z,100560.44
2022-09-03T03:12:07.250Z,100565.38
2022-09-03T03:14:35.419Z,100560.78
2022-09-03T03:17:03.939Z,100560.78
2022-09-03T03:19:32.131Z,100566.94
2022-09-03T03:22:00.480Z,100572.13
2022-09-03T03:24:28.658Z,100574.97
2022-09-03T03:26:58.315Z,100572.63
2022-09-03T03:29:26.760Z,100578.09
2022-09-03T03:31:58.163Z,100581.75
2022-09-03T03:34:26.391Z,100585.47
2022-09-03T03:36:56.870Z,100586.84
2022-09-03T03:39:25.068Z,100581.38
2022-09-03T03:41:53.745Z,100573.59
2022-09-03T03:44:21.941Z,100578.38
2022-09-03T03:46:50.136Z,100573.53
2022-09-03T03:49:18.319Z,100562.38
2022-09-03T03:51:46.516Z,100560.38
2022-09-03T03:54:17.547Z,100559.38
2022-09-03T03:56:55.252Z,100551.22
2022-09-03T03:59:24.188Z,100546.91
2022-09-03T04:01:55.027Z,100548.25
2022-09-03T04:04:23.343Z,100546.25
2022-09-03T04:06:53.875Z,100543.53
2022-09-03T04:09:22.306Z,100546.06
2022-09-03T04:11:53.669Z,100543.53
2022-09-03T04:14:22.552Z,100541.88
2022-09-03T04:16:54.872Z,100552.34
2022-09-03T04:19:26.591Z,100553.06
2022-09-03T04:21:54.778Z,100552.78
2022-09-03T04:24:23.948Z,100543.72
2022-09-03T04:26:54.081Z,100539.31
2022-09-03T04:29:22.250Z,100531.72
2022-09-03T04:32:09.023Z,100537.03
2022-09-03T04:34:37.215Z,100529.25
2022-09-03T04:37:05.500Z,100523.78
2022-09-03T04:39:33.696Z,100537.03
2022-09-03T04:42:04.540Z,100530.38
2022-09-03T04:44:32.753Z,100532.31
2022-09-03T04:47:00.950Z,100535.81
2022-09-03T04:49:29.101Z,100540.56
2022-09-03T04:51:57.588Z,100545.31
2022-09-03T04:54:29.260Z,100543.97
2022-09-03T04:56:58.310Z,100543.09
2022-09-03T04:59:29.287Z,100548.69
2022-09-03T05:01:57.866Z,100540.50
2022-09-03T05:04:26.156Z,100539.72
2022-09-03T05:06:54.580Z,100540.50
2022-09-03T05:09:22.814Z,100530.75
2022-09-03T05:11:51.027Z,100533.63
2022-09-03T05:14:19.387Z,100535.25
2022-09-03T05:16:52.992Z,100536.31
2022-09-03T05:19:21.657Z,100541.16
2022-09-03T05:21:52.671Z,100545.19
2022-09-03T05:24:20.966Z,100546.72
2022-09-03T05:26:49.225Z,100545.16
2022-09-03T05:29:19.636Z,100550.56
2022-09-03T05:31:47.917Z,100553.03
2022-09-03T05:34:16.354Z,100549.38
2022-09-03T05:36:49.108Z,100550.81
2022-09-03T05:39:17.337Z,100551.44
2022-09-03T05:41:45.816Z,100557.59
2022-09-03T05:44:14.513Z,100556.59
2022-09-03T05:46:42.732Z,100556.75
2022-09-03T05:49:11.903Z,100557.53
2022-09-03T05:51:40.315Z,100546.53
2022-09-03T05:54:08.907Z,100553.34
2022-09-03T05:56:40.237Z,100538.88
2022-09-03T05:59:10.370Z,100533.09
2022-09-03T06:01:51.587Z,100523.25
2022-09-03T06:04:21.526Z,100512.66
2022-09-03T06:06:52.405Z,100509.13
2022-09-03T06:09:23.332Z,100506.78
2022-09-03T06:11:53.912Z,100506.97
2022-09-03T06:14:23.825Z,100498.28
2022-09-03T06:16:53.073Z,100497.75
2022-09-03T06:19:21.574Z,100497.25
2022-09-03T06:21:49.918Z,100498.97
2022-09-03T06:24:28.100Z,100503.38
2022-09-03T06:26:57.763Z,100500.78
2022-09-03T06:29:26.878Z,100501.63
2022-09-03T06:31:55.981Z,100491.38
2022-09-03T06:34:29.534Z,100499.56
2022-09-03T06:36:58.397Z,100505.28
2022-09-03T06:39:27.180Z,100509.97
2022-09-03T06:41:55.542Z,100516.06
2022-09-03T06:44:34.587Z,100514.38
2022-09-03T06:47:02.815Z,100518.53
2022-09-03T06:49:34.028Z,100518.81
2022-09-03T06:52:02.412Z,100527.78
2022-09-03T06:54:30.666Z,100532.59
2022-09-03T06:56:58.858Z,100536.44
2022-09-03T06:59:28.370Z,100541.06
2022-09-03T07:01:58.248Z,100536.34
2022-09-03T07:04:27.580Z,100532.97
2022-09-03T07:06:57.495Z,100532.97
2022-09-03T07:09:26.075Z,100537.06
2022-09-03T07:11:55.924Z,100543.69
2022-09-03T07:14:24.624Z,100551.19
2022-09-03T07:16:52.896Z,100537.16
2022-09-03T07:19:21.143Z,100544.69
2022-09-03T07:21:50.798Z,100545.25
2022-09-03T07:24:22.092Z,100547.31
2022-09-03T07:26:50.994Z,100550.00
2022-09-03T07:29:23.381Z,100543.38
2022-09-03T07:31:52.859Z,100541.47
2022-09-03T07:34:25.335Z,100543.63
2022-09-03T07:36:54.301Z,100542.13
2022-09-03T07:39:22.836Z,100540.28
2022-09-03T07:41:51.244Z,100540.22
2022-09-03T07:44:20.399Z,100540.06
2022-09-03T07:46:51.471Z,100546.66
2022-09-03T07:49:21.801Z,100549.00
2022-09-03T07:51:52.364Z,100553.31
2022-09-03T07:54:21.978Z,100558.31
2022-09-03T07:56:50.194Z,100564.31
2022-09-03T07:59:20.439Z,100567.00
2022-09-03T08:01:51.167Z,100566.91
2022-09-03T08:04:19.368Z,100562.72
2022-09-03T08:06:48.306Z,100565.03
2022-09-03T08:09:16.633Z,100573.00
2022-09-03T08:11:44.844Z,100574.56
2022-09-03T08:14:14.280Z,100570.38
2022-09-03T08:16:49.894Z,100581.69
2022-09-03T08:19:19.350Z,100585.03
2022-09-03T08:21:48.427Z,100585.81
2022-09-03T08:24:21.917Z,100589.06
2022-09-03T08:26:52.429Z,100595.34
2022-09-03T08:29:24.326Z,100597.31
2022-09-03T08:31:52.598Z,100602.81
2022-09-03T08:34:21.395Z,100608.09
2022-09-03T08:36:50.388Z,100610.47
2022-09-03T08:39:18.789Z,100616.16
2022-09-03T08:41:53.263Z,100606.88
2022-09-03T08:44:34.695Z,100609.81
2022-09-03T08:47:39.676Z,100598.25
2022-09-03T08:50:18.201Z,100604.75
2022-09-03T08:52:50.638Z,100600.84
2022-09-03T08:55:31.831Z,100608.41
2022-09-03T08:58:20.960Z,100621.06
2022-09-03T09:01:03.842Z,100613.66
2022-09-03T09:03:39.610Z,100614.94
2022-09-03T09:06:24.934Z,100612.28
2022-09-03T09:08:57.695Z,100611.84
2022-09-03T09:11:45.146Z,100609.66
2022-09-03T09:14:27.099Z,100609.00
2022-09-03T09:17:33.750Z,100611.22
2022-09-03T09:20:20.243Z,100614.06
2022-09-03T09:23:13.562Z,100606.19
2022-09-03T09:25:50.131Z,100607.53
2022-09-03T09:28:24.370Z,100614.53
2022-09-03T09:30:56.794Z,100628.16
2022-09-03T09:33:25.662Z,100630.25
2022-09-03T09:35:53.910Z,100625.72
2022-09-03T09:38:36.380Z,100617.06
2022-09-03T09:41:12.190Z,100617.69
2022-09-03T09:43:40.724Z,100615.91
2022-09-03T09:46:21.540Z,100625.75
2022-09-03T09:48:54.808Z,100613.59
2022-09-03T09:51:31.822Z,100609.16
2022-09-03T09:54:11.680Z,100613.44
2022-09-03T09:56:42.307Z,100616.56
2022-09-03T09:59:15.413Z,100611.75
2022-09-03T10:01:45.048Z,100611.78
2022-09-03T10:04:25.700Z,100606.56
2022-09-03T10:07:19.678Z,100619.53
2022-09-03T10:10:29.208Z,100617.72
2022-09-03T10:13:09.470Z,100620.97
2022-09-03T10:15:51.160Z,100617.94
2022-09-03T10:18:48.095Z,100619.44
2022-09-03T10:21:36.717Z,100622.78
2022-09-03T10:24:41.049Z,100617.22
2022-09-03T10:27:12.348Z,100615.56
2022-09-03T10:29:41.826Z,100617.75
2022-09-03T10:32:24.124Z,100615.66
2022-09-03T10:35:28.350Z,100625.50
2022-09-03T10:38:10.448Z,100622.38
2022-09-03T10:40:56.617Z,100618.44
2022-09-03T10:43:44.372Z,100612.66
2022-09-03T10:46:23.414Z,100616.41
2022-09-03T10:49:18.012Z,100621.41
2022-09-03T10:52:01.315Z,100627.19
2022-09-03T10:54:47.997Z,100618.94
2022-09-03T10:57:22.765Z,100621.50
2022-09-03T10:59:54.087Z,100619.50
2022-09-03T11:02:44.007Z,100614.53
2022-09-03T11:05:43.837Z,100617.47
2022-09-03T11:08:23.666Z,100612.59
2022-09-03T11:10:57.332Z,100604.03
2022-09-03T11:13:38.739Z,100603.34
2022-09-03T11:16:20.119Z,100601.50
2022-09-03T11:18:51.279Z,100599.94
2022-09-03T11:21:24.830Z,100599.34
2022-09-03T11:24:17.389Z,100603.56
2022-09-03T11:26:52.677Z,100600.91
2022-09-03T11:29:38.118Z,100592.03
2022-09-03T11:32:19.001Z,100594.00
2022-09-03T11:34:50.215Z,100594.66
2022-09-03T11:37:22.728Z,100591.13
2022-09-03T11:40:12.288Z,100596.25
2022-09-03T11:42:42.375Z,100596.66
2022-09-03T11:45:14.316Z,100596.19
2022-09-03T11:47:44.606Z,100593.69
2022-09-03T11:50:28.288Z,100597.06
2022-09-03T11:53:10.297Z,100591.53
2022-09-03T11:55:57.078Z,100588.94
2022-09-03T11:58:34.816Z,100578.41
2022-09-03T12:01:16.417Z,100585.34
2022-09-03T12:03:51.574Z,100578.84
2022-09-03T12:06:36.656Z,100580.53
2022-09-03T12:09:35.800Z,100576.53
2022-09-03T12:12:28.073Z,100566.44
2022-09-03T12:15:30.133Z,100564.94
2022-09-03T12:18:22.566Z,100567.72
2022-09-03T12:20:57.475Z,100554.75
2022-09-03T12:23:33.570Z,100560.53
2022-09-03T12:26:06.159Z,100554.13
2022-09-03T12:28:44.313Z,100558.19
2022-09-03T12:31:25.596Z,100558.81
2022-09-03T12:33:55.557Z,100556.84
2022-09-03T12:36:24.179Z,100555.03
2022-09-03T12:39:11.975Z,100556.47
2022-09-03T12:42:02.253Z,100559.06
2022-09-03T12:44:41.144Z,100549.16
2022-09-03T12:50:14.358Z,100555.28
2022-09-03T12:53:10.937Z,100544.81
2022-09-03T12:55:48.057Z,100551.41
2022-09-03T12:58:19.018Z,100543.06
2022-09-03T13:01:21.263Z,100534.00
2022-09-03T13:04:19.109Z,100539.59
2022-09-03T13:07:05.792Z,100540.38
2022-09-03T13:09:38.024Z,100541.50
2022-09-03T13:12:07.341Z,100528.16
2022-09-03T13:14:47.268Z,100531.13
2022-09-03T13:17:38.682Z,100529.44
2022-09-03T13:20:40.465Z,100525.75
2022-09-03T13:23:34.470Z,100535.50
2022-09-03T13:26:08.627Z,100526.47
2022-09-03T13:28:58.375Z,100528.59
2022-09-03T13:31:50.663Z,100527.13
2022-09-03T13:34:40.158Z,100529.69
2022-09-03T13:37:17.470Z,100522.88
2022-09-03T13:40:00.349Z,100522.00
2022-09-03T13:42:42.656Z,100522.72
2022-09-03T13:45:32.661Z,100516.97
2022-09-03T13:48:28.548Z,100515.50
2022-09-03T13:51:04.361Z,100500.25
2022-09-03T13:54:30.986Z,100498.44
2022-09-03T13:57:34.423Z,100509.03
2022-09-03T14:00:10.140Z,100501.72
2022-09-03T14:03:07.668Z,100503.13
2022-09-03T14:05:43.935Z,100500.97
2022-09-03T14:08:55.391Z,100505.53
2022-09-03T14:11:58.812Z,100496.28
2022-09-03T14:14:52.692Z,100500.03
2022-09-03T14:17:46.527Z,100499.25
2022-09-03T14:20:41.378Z,100503.22
2022-09-03T14:23:44.828Z,100496.69
2022-09-03T14:26:38.491Z,100499.94
2022-09-03T14:29:14.186Z,100493.88
2022-09-03T14:32:13.255Z,100483.63
2022-09-03T14:34:50.635Z,100486.81
2022-09-03T14:37:37.651Z,100487.91
2022-09-03T14:40:19.089Z,100486.34
2022-09-03T14:42:47.766Z,100484.78
2022-09-03T14:45:52.655Z,100484.47
2022-09-03T14:48:23.616Z,100473.84
2022-09-03T14:51:11.079Z,100490.81
2022-09-03T14:54:16.054Z,100482.06
2022-09-03T14:57:01.041Z,100477.13
2022-09-03T15:00:07.075Z,100483.28
2022-09-03T15:02:35.301Z,100488.25
2022-09-03T15:05:41.318Z,100479.19
2022-09-03T15:08:23.586Z,100478.41
2022-09-03T15:10:59.178Z,100480.78
2022-09-03T15:14:18.762Z,100478.94
2022-09-03T15:17:12.854Z,100476.16
2022-09-03T15:20:05.220Z,100474.72
2022-09-03T15:23:02.856Z,100470.75
2022-09-03T15:25:54.246Z,100471.00
2022-09-03T15:28:59.788Z,100461.66
2022-09-03T15:31:28.029Z,100473.84
2022-09-03T15:34:33.884Z,100474.19
2022-09-03T15:37:09.904Z,100485.06
2022-09-03T15:39:42.369Z,100489.72
2022-09-03T15:42:27.352Z,100488.09
2022-09-03T15:45:42.462Z,100490.66
2022-09-03T15:48:43.338Z,100494.72
2022-09-03T15:51:30.164Z,100495.78
2022-09-03T15:54:09.033Z,100494.63
2022-09-03T15:57:11.997Z,100490.78
2022-09-03T16:00:09.223Z,100485.13
2022-09-03T16:02:49.299Z,100484.78
2022-09-03T16:05:24.523Z,100484.44
2022-09-03T16:08:10.959Z,100491.97
2022-09-03T16:10:57.123Z,100496.31
2022-09-03T16:13:49.614Z,100495.59
2022-09-03T16:16:33.081Z,100491.19
2022-09-03T16:19:39.117Z,100494.69
2022-09-03T16:22:37.568Z,100495.94
2022-09-03T16:25:13.510Z,100502.59
2022-09-03T16:28:10.201Z,100492.09
2022-09-03T16:30:40.983Z,100493.16
2022-09-03T16:33:24.739Z,100495.59
2022-09-03T16:36:11.341Z,100495.72
2022-09-03T16:39:06.816Z,100496.44
2022-09-03T16:41:50.013Z,100492.81
2022-09-03T16:44:34.258Z,100498.50
2022-09-03T16:47:19.110Z,100503.06
2022-09-03T16:50:06.414Z,100506.53
2022-09-03T16:53:02.256Z,100501.28
2022-09-03T16:55:39.510Z,100509.19
2022-09-03T16:58:34.739Z,100507.28
2022-09-03T17:01:13.370Z,100510.88
2022-09-03T17:03:44.695Z,100505.41
2022-09-03T17:06:26.459Z,100497.84
2022-09-03T17:09:16.108Z,100501.28
2022-09-03T17:12:35.858Z,100498.25
2022-09-03T17:15:33.443Z,100500.78
2022-09-03T17:18:21.793Z,100502.72
2022-09-03T17:20:59.028Z,100505.69
2022-09-03T17:23:47.440Z,100495.06
2022-09-03T17:26:55.503Z,100499.25
2022-09-03T17:29:36.597Z,100505.03
2022-09-03T17:32:13.439Z,100501.81
2022-09-03T17:34:44.321Z,100511.25
2022-09-03T17:37:39.771Z,100505.38
2022-09-03T17:40:44.039Z,100502.16
2022-09-03T17:44:03.494Z,100510.16
2022-09-03T17:46:42.608Z,100511.09
2022-09-03T17:49:29.603Z,100513.38
2022-09-03T17:52:13.231Z,100519.38
2022-09-03T17:54:45.671Z,100525.31
2022-09-03T17:57:38.098Z,100529.44
2022-09-03T18:00:21.207Z,100524.41
2022-09-03T18:03:13.759Z,100529.75
2022-09-03T18:05:54.807Z,100533.69
2022-09-03T18:08:48.412Z,100540.34
2022-09-03T18:11:30.359Z,100542.00
2022-09-03T18:14:25.001Z,100550.69
2022-09-03T18:16:59.320Z,100568.00
2022-09-03T18:19:58.108Z,100561.38
2022-09-03T18:23:10.896Z,100571.63
2022-09-03T18:26:02.828Z,100582.38
2022-09-03T18:28:57.518Z,100587.59
2022-09-03T18:31:46.633Z,100588.72
2022-09-03T18:34:33.580Z,100605.84
2022-09-03T18:37:20.414Z,100603.22
2022-09-03T18:40:07.040Z,100612.88
2022-09-03T18:43:21.210Z,100604.66
2022-09-03T18:49:46.500Z,100614.75
2022-09-03T18:52:54.968Z,100618.28
2022-09-03T18:56:23.390Z,100617.22
2022-09-03T18:59:28.823Z,100616.84
2022-09-03T19:02:15.473Z,100615.81
2022-09-03T19:05:40.109Z,100619.94
2022-09-03T19:08:36.355Z,100620.53
2022-09-03T19:11:54.932Z,100626.28
2022-09-03T19:14:49.671Z,100631.84
2022-09-03T19:17:45.226Z,100631.63
2022-09-03T19:20:49.302Z,100643.53
2022-09-03T19:23:35.925Z,100643.72
2022-09-03T19:26:52.574Z,100640.03
2022-09-03T19:30:06.349Z,100653.78
2022-09-03T19:33:13.941Z,100641.47
2022-09-03T19:36:28.510Z,100645.78
2022-09-03T19:39:29.371Z,100644.78
2022-09-03T19:42:34.502Z,100651.72
2022-09-03T19:45:53.553Z,100650.09
2022-09-03T19:49:10.567Z,100644.56
2022-09-03T19:52:09.741Z,100646.81
2022-09-03T19:54:57.465Z,100651.94
2022-09-03T19:57:47.155Z,100648.88
2022-09-03T20:00:34.561Z,100653.81
2022-09-03T20:03:23.731Z,100651.13
2022-09-03T20:06:11.973Z,100640.66
2022-09-03T20:09:02.652Z,100654.41
2022-09-03T20:11:31.564Z,100655.81
2022-09-03T20:14:15.900Z,100663.59
2022-09-03T20:17:02.287Z,100665.88
2022-09-03T20:19:41.709Z,100663.81
2022-09-03T20:22:09.964Z,100663.56
2022-09-03T20:24:59.586Z,100667.88
2022-09-03T20:27:48.106Z,100669.72
2022-09-03T20:30:20.112Z,100667.03
2022-09-03T20:33:28.332Z,100674.19
2022-09-03T20:36:15.141Z,100682.38
2022-09-03T20:38:59.676Z,100685.03
2022-09-03T20:41:41.004Z,100687.47
2022-09-03T20:44:48.864Z,100689.94
2022-09-03T20:47:45.090Z,100694.03
2022-09-03T20:50:28.356Z,100698.34
2022-09-03T20:53:02.094Z,100691.72
2022-09-03T20:55:44.613Z,100692.78
2022-09-03T20:58:27.816Z,100693.56
2022-09-03T21:01:07.114Z,100694.59
2022-09-03T21:04:02.353Z,100690.47
2022-09-03T21:06:53.896Z,100700.91
2022-09-03T21:09:42.700Z,100697.59
2022-09-03T21:12:32.444Z,100703.13
2022-09-03T21:15:39.700Z,100700.25
2022-09-03T21:18:24.416Z,100703.47
2022-09-03T21:21:09.649Z,100710.44
2022-09-03T21:23:44.980Z,100709.31
2022-09-03T21:26:21.465Z,100714.03
2022-09-03T21:29:13.124Z,100709.72
2022-09-03T21:31:48.450Z,100711.66
2022-09-03T21:34:37.089Z,100718.44
2022-09-03T21:37:06.519Z,100711.56
2022-09-03T21:39:56.055Z,100717.88
2022-09-03T21:42:42.162Z,100722.00
2022-09-03T21:45:25.388Z,100721.00
2022-09-03T21:48:10.051Z,100725.47
2022-09-03T21:51:00.181Z,100724.03
2022-09-03T21:54:09.265Z,100719.34
2022-09-03T21:56:49.424Z,100725.88
2022-09-03T21:59:26.687Z,100721.78
2022-09-03T22:02:03.041Z,100721.56
2022-09-03T22:04:31.738Z,100716.22
2022-09-03T22:07:26.167Z,100719.88
2022-09-03T22:10:20.227Z,100714.66
2022-09-03T22:13:09.365Z,100716.88
2022-09-03T22:15:38.966Z,100718.69
2022-09-03T22:18:29.417Z,100718.25
2022-09-03T22:21:28.717Z,100727.66
2022-09-03T22:24:24.615Z,100722.47
2022-09-03T22:27:03.648Z,100713.44
2022-09-03T22:29:57.367Z,100715.19
2022-09-03T22:32:55.956Z,100716.41
2022-09-03T22:35:26.996Z,100719.47
2022-09-03T22:38:20.899Z,100717.19
2022-09-03T22:40:59.123Z,100719.59
2022-09-03T22:44:02.311Z,100716.69
2022-09-03T22:46:54.134Z,100709.88
2022-09-03T22:49:41.586Z,100713.09
2022-09-03T22:52:34.798Z,100712.53
2022-09-03T22:55:14.690Z,100717.66
2022-09-03T22:57:54.818Z,100712.38
2022-09-03T23:00:23.456Z,100713.59
2022-09-03T23:03:08.711Z,100708.63
2022-09-03T23:05:41.138Z,100702.88
2022-09-03T23:08:14.135Z,100706.19
2022-09-03T23:11:03.975Z,100710.19
2022-09-03T23:13:42.086Z,100708.38
2022-09-03T23:16:13.595Z,100708.59
2022-09-03T23:18:45.715Z,100708.19
2022-09-03T23:21:47.473Z,100707.78
2022-09-03T23:24:31.089Z,100709.41
2022-09-03T23:27:00.659Z,100711.88
2022-09-03T23:29:45.988Z,100706.13
2022-09-03T23:32:15.075Z,100703.22
2022-09-03T23:34:43.307Z,100711.78
2022-09-03T23:37:32.294Z,100716.25
2022-09-03T23:40:37.462Z,100715.59
2022-09-03T23:43:13.732Z,100719.28
2022-09-03T23:46:05.209Z,100722.38
2022-09-03T23:48:37.689Z,100716.13
2022-09-03T23:51:24.296Z,100726.81
2022-09-03T23:53:58.024Z,100724.28
2022-09-03T23:56:45.618Z,100735.91
2022-09-03T23:59:43.895Z,100727.75
